createdAt,value
2018-12-08T00:00:41.522Z,8.85
2018-12-08T00:03:09.029Z,8.82
2018-12-08T00:05:36.497Z,8.89
2018-12-08T00:08:04.018Z,8.79
2018-12-08T00:10:31.424Z,8.79
2018-12-08T00:12:58.824Z,8.84
2018-12-08T00:15:26.228Z,8.93
2018-12-08T00:17:53.632Z,8.90
2018-12-08T00:20:21.038Z,9.06
2018-12-08T00:22:48.617Z,9.16
2018-12-08T00:25:16.037Z,9.21
2018-12-08T00:27:43.444Z,9.14
2018-12-08T00:30:23.495Z,9.03
2018-12-08T00:32:50.966Z,9.07
2018-12-08T00:35:18.370Z,9.07
2018-12-08T00:37:45.884Z,9.06
2018-12-08T00:40:13.301Z,9.03
2018-12-08T00:42:40.708Z,9.05
2018-12-08T00:45:08.132Z,9.02
2018-12-08T00:47:36.423Z,8.87
2018-12-08T00:50:04.764Z,8.76
2018-12-08T00:52:32.159Z,8.69
2018-12-08T00:55:00.322Z,8.76
2018-12-08T00:57:27.754Z,8.86
2018-12-08T00:59:55.289Z,8.86
2018-12-08T01:02:22.751Z,8.77
2018-12-08T01:04:50.208Z,8.69
2018-12-08T01:07:17.631Z,8.63
2018-12-08T01:09:45.067Z,8.68
2018-12-08T01:12:12.571Z,8.72
2018-12-08T01:14:39.911Z,8.75
2018-12-08T01:17:07.319Z,8.78
2018-12-08T01:19:34.781Z,8.85
2018-12-08T01:22:02.188Z,8.85
2018-12-08T01:24:29.612Z,8.72
2018-12-08T01:26:57.037Z,8.73
2018-12-08T01:29:24.443Z,8.75
2018-12-08T01:31:52.013Z,8.75
2018-12-08T01:34:19.415Z,8.70
2018-12-08T01:36:46.934Z,8.66
2018-12-08T01:39:14.532Z,8.65
2018-12-08T01:41:41.987Z,8.77
2018-12-08T01:44:10.320Z,8.85
2018-12-08T01:46:37.707Z,8.85
2018-12-08T01:49:05.138Z,8.70
2018-12-08T01:51:32.534Z,8.64
2018-12-08T01:53:59.977Z,8.64
2018-12-08T01:56:27.520Z,8.69
2018-12-08T01:58:54.925Z,8.70
2018-12-08T02:01:22.333Z,8.56
2018-12-08T02:03:49.731Z,8.29
2018-12-08T02:06:17.134Z,8.33
2018-12-08T02:08:44.542Z,8.34
2018-12-08T02:11:13.056Z,8.37
2018-12-08T02:13:40.455Z,8.39
2018-12-08T02:16:07.871Z,8.39
2018-12-08T02:18:35.672Z,8.40
2018-12-08T02:21:03.074Z,8.53
2018-12-08T02:23:30.683Z,8.56
2018-12-08T02:25:58.090Z,8.56
2018-12-08T02:28:25.492Z,8.45
2018-12-08T02:30:52.892Z,8.25
2018-12-08T02:33:20.854Z,8.17
2018-12-08T02:35:48.260Z,8.17
2018-12-08T02:38:15.673Z,8.09
2018-12-08T02:40:43.543Z,8.01
2018-12-08T02:43:10.947Z,7.94
2018-12-08T02:45:38.372Z,8.10
2018-12-08T02:48:05.906Z,8.14
2018-12-08T02:50:33.798Z,8.22
2018-12-08T02:53:01.183Z,8.22
2018-12-08T02:55:28.639Z,8.24
2018-12-08T02:57:56.057Z,8.19
2018-12-08T03:00:23.450Z,8.09
2018-12-08T03:02:50.878Z,8.04
2018-12-08T03:05:18.290Z,7.88
2018-12-08T03:07:45.696Z,7.78
2018-12-08T03:10:13.939Z,7.78
2018-12-08T03:12:41.447Z,7.86
2018-12-08T03:15:08.855Z,7.95
2018-12-08T03:17:36.288Z,7.99
2018-12-08T03:20:03.820Z,7.88
2018-12-08T03:22:31.553Z,7.77
2018-12-08T03:24:58.938Z,7.71
2018-12-08T03:27:26.501Z,7.78
2018-12-08T03:29:53.978Z,7.80
2018-12-08T03:32:21.383Z,7.82
2018-12-08T03:34:48.821Z,7.78
2018-12-08T03:37:16.215Z,7.72
2018-12-08T03:39:43.858Z,7.73
2018-12-08T03:42:11.298Z,7.57
2018-12-08T03:44:38.710Z,7.54
2018-12-08T03:47:07.093Z,7.54
2018-12-08T03:49:34.606Z,7.63
2018-12-08T03:52:01.969Z,7.70
2018-12-08T03:54:29.946Z,7.76
2018-12-08T03:56:57.339Z,7.81
2018-12-08T03:59:24.932Z,7.91
2018-12-08T04:01:52.365Z,8.04
2018-12-08T04:04:19.765Z,8.11
2018-12-08T04:06:47.165Z,8.21
2018-12-08T04:09:14.630Z,8.24
2018-12-08T04:11:42.004Z,8.22
2018-12-08T04:14:09.522Z,8.15
2018-12-08T04:16:36.947Z,8.06
2018-12-08T04:19:04.380Z,7.90
2018-12-08T04:21:31.809Z,7.75
2018-12-08T04:23:59.247Z,7.76
2018-12-08T04:26:26.675Z,7.76
2018-12-08T04:28:54.075Z,7.71
2018-12-08T04:31:22.956Z,7.69
2018-12-08T04:33:52.786Z,7.67
2018-12-08T04:36:20.431Z,7.73
2018-12-08T04:38:49.011Z,7.82
2018-12-08T04:41:17.304Z,7.85
2018-12-08T04:43:45.124Z,7.84
2018-12-08T04:46:12.704Z,7.83
2018-12-08T04:48:40.303Z,7.90
2018-12-08T04:51:12.690Z,7.98
2018-12-08T04:53:40.205Z,8.03
2018-12-08T04:56:08.923Z,8.09
2018-12-08T04:58:36.685Z,8.10
2018-12-08T05:01:05.315Z,8.10
2018-12-08T05:03:33.216Z,8.03
2018-12-08T05:06:01.664Z,7.96
2018-12-08T05:08:33.518Z,7.82
2018-12-08T05:11:02.320Z,7.78
2018-12-08T05:13:29.739Z,7.68
2018-12-08T05:15:57.151Z,7.63
2018-12-08T05:18:24.550Z,7.59
2018-12-08T05:20:51.944Z,7.59
2018-12-08T05:23:19.405Z,7.58
2018-12-08T05:25:46.805Z,7.58
2018-12-08T05:28:14.253Z,7.58
2018-12-08T05:30:41.694Z,7.63
2018-12-08T05:33:09.125Z,7.58
2018-12-08T05:35:37.138Z,7.48
2018-12-08T05:38:04.611Z,7.38
2018-12-08T05:40:32.064Z,7.36
2018-12-08T05:42:59.490Z,7.41
2018-12-08T05:45:26.997Z,7.45
2018-12-08T05:47:55.081Z,7.47
2018-12-08T05:50:22.538Z,7.52
2018-12-08T05:52:49.951Z,7.54
2018-12-08T05:55:17.377Z,7.61
2018-12-08T05:57:44.774Z,7.62
2018-12-08T06:00:12.179Z,7.69
2018-12-08T06:02:39.590Z,7.64
2018-12-08T06:05:07.077Z,7.58
2018-12-08T06:07:34.482Z,7.58
2018-12-08T06:10:01.904Z,7.54
2018-12-08T06:12:29.312Z,7.51
2018-12-08T06:14:56.757Z,7.45
2018-12-08T06:17:24.214Z,7.31
2018-12-08T06:19:51.755Z,7.22
2018-12-08T06:22:19.222Z,7.12
2018-12-08T06:24:46.663Z,7.09
2018-12-08T06:27:14.088Z,7.06
2018-12-08T06:29:41.521Z,7.02
2018-12-08T06:32:09.086Z,7.04
2018-12-08T06:34:36.518Z,7.04
2018-12-08T06:37:03.940Z,7.02
2018-12-08T06:39:31.331Z,6.95
2018-12-08T06:41:58.748Z,6.95
2018-12-08T06:44:26.147Z,7.04
2018-12-08T06:46:53.575Z,7.01
2018-12-08T06:49:20.985Z,7.01
2018-12-08T06:51:48.455Z,7.03
2018-12-08T06:54:15.858Z,7.03
2018-12-08T06:56:43.286Z,7.08
2018-12-08T06:59:10.692Z,7.16
2018-12-08T07:01:38.168Z,7.21
2018-12-08T07:04:05.722Z,7.27
2018-12-08T07:06:33.625Z,7.26
2018-12-08T07:09:01.043Z,7.24
2018-12-08T07:11:28.461Z,7.24
2018-12-08T07:13:55.903Z,7.42
2018-12-08T07:16:23.334Z,7.48
2018-12-08T07:18:50.827Z,7.50
2018-12-08T07:21:18.253Z,7.43
2018-12-08T07:23:45.655Z,7.36
2018-12-08T07:26:13.245Z,7.34
2018-12-08T07:28:40.703Z,7.43
2018-12-08T07:31:08.317Z,7.49
2018-12-08T07:33:35.756Z,7.42
2018-12-08T07:36:03.192Z,7.28
2018-12-08T07:38:31.497Z,7.33
2018-12-08T07:40:58.899Z,7.33
2018-12-08T07:43:27.565Z,7.40
2018-12-08T07:45:55.811Z,7.32
2018-12-08T07:48:23.212Z,7.28
2018-12-08T07:50:50.666Z,7.35
2018-12-08T07:53:18.066Z,7.40
2018-12-08T07:55:45.541Z,7.46
2018-12-08T07:58:12.967Z,7.53
2018-12-08T08:00:40.399Z,7.53
2018-12-08T08:03:07.825Z,7.56
2018-12-08T08:05:35.237Z,7.59
2018-12-08T08:08:02.654Z,7.70
2018-12-08T08:10:30.060Z,7.73
2018-12-08T08:12:57.476Z,7.87
2018-12-08T08:15:25.155Z,8.05
2018-12-08T08:17:52.571Z,7.93
2018-12-08T08:20:19.976Z,7.93
2018-12-08T08:22:47.387Z,7.98
2018-12-08T08:25:14.861Z,8.08
2018-12-08T08:27:42.341Z,8.36
2018-12-08T08:30:10.110Z,8.72
2018-12-08T08:32:37.588Z,8.78
2018-12-08T08:35:05.103Z,8.78
2018-12-08T08:37:32.837Z,8.87
2018-12-08T08:40:00.304Z,9.14
2018-12-08T08:42:27.718Z,8.80
2018-12-08T08:44:55.113Z,8.67
2018-12-08T08:47:22.515Z,8.60
2018-12-08T08:49:50.259Z,8.83
2018-12-08T08:52:17.658Z,8.95
2018-12-08T08:54:45.127Z,8.62
2018-12-08T08:57:12.567Z,8.78
2018-12-08T08:59:40.094Z,10.04
2018-12-08T09:02:07.502Z,11.48
2018-12-08T09:04:34.942Z,12.43
2018-12-08T09:07:02.563Z,13.14
2018-12-08T09:09:29.970Z,13.66
2018-12-08T09:11:58.111Z,13.82
2018-12-08T09:14:25.750Z,14.36
2018-12-08T09:16:53.341Z,14.83
2018-12-08T09:19:20.759Z,15.01
2018-12-08T09:21:48.195Z,15.33
2018-12-08T09:24:15.604Z,15.33
2018-12-08T09:26:43.165Z,15.62
2018-12-08T09:29:10.601Z,16.11
2018-12-08T09:31:38.020Z,16.14
2018-12-08T09:34:05.443Z,16.19
2018-12-08T09:36:32.911Z,15.71
2018-12-08T09:39:00.366Z,15.13
2018-12-08T09:41:27.843Z,15.56
2018-12-08T09:43:55.347Z,15.42
2018-12-08T09:46:22.830Z,15.85
2018-12-08T09:48:50.235Z,15.47
2018-12-08T09:51:17.871Z,15.19
2018-12-08T09:53:45.299Z,14.65
2018-12-08T09:56:12.761Z,15.21
2018-12-08T09:58:40.206Z,13.80
2018-12-08T10:01:07.658Z,12.72
2018-12-08T10:03:35.059Z,11.83
2018-12-08T10:06:02.484Z,11.92
2018-12-08T10:08:29.930Z,13.92
2018-12-08T10:10:57.351Z,15.06
2018-12-08T10:13:24.799Z,13.95
2018-12-08T10:15:52.220Z,12.52
2018-12-08T10:18:19.607Z,11.73
2018-12-08T10:20:47.138Z,11.11
2018-12-08T10:23:14.551Z,11.45
2018-12-08T10:25:42.283Z,13.43
2018-12-08T10:28:09.752Z,13.26
2018-12-08T10:30:37.235Z,12.25
2018-12-08T10:33:04.803Z,12.18
2018-12-08T10:35:32.223Z,12.65
2018-12-08T10:37:59.749Z,13.57
2018-12-08T10:40:27.183Z,12.46
2018-12-08T10:42:54.637Z,11.71
2018-12-08T10:45:22.051Z,11.12
2018-12-08T10:47:49.770Z,10.88
2018-12-08T10:50:17.456Z,11.02
2018-12-08T10:52:45.010Z,11.95
2018-12-08T10:55:12.435Z,11.88
2018-12-08T10:57:39.835Z,11.69
2018-12-08T11:00:07.886Z,11.74
2018-12-08T11:02:35.424Z,11.68
2018-12-08T11:05:02.843Z,11.30
2018-12-08T11:07:30.261Z,11.30
2018-12-08T11:09:58.601Z,12.68
2018-12-08T11:12:26.026Z,14.53
2018-12-08T11:15:00.600Z,14.52
2018-12-08T11:17:22.445Z,13.49
2018-12-08T11:19:50.623Z,13.15
2018-12-08T11:22:18.062Z,12.04
2018-12-08T11:24:45.518Z,11.78
2018-12-08T11:27:13.066Z,11.64
2018-12-08T11:29:40.933Z,11.18
2018-12-08T11:32:08.353Z,10.89
2018-12-08T11:34:36.280Z,10.39
2018-12-08T11:37:03.746Z,10.22
2018-12-08T11:39:32.283Z,10.39
2018-12-08T11:42:01.122Z,11.04
2018-12-08T11:44:28.979Z,10.68
2018-12-08T11:46:56.637Z,10.54
2018-12-08T11:49:24.119Z,10.43
2018-12-08T11:51:51.552Z,10.35
2018-12-08T11:54:19.849Z,10.39
2018-12-08T11:56:47.275Z,10.62
2018-12-08T11:59:14.754Z,10.89
2018-12-08T12:01:42.355Z,10.99
2018-12-08T12:04:10.163Z,11.18
2018-12-08T12:06:37.743Z,11.33
2018-12-08T12:09:05.389Z,11.26
2018-12-08T12:11:32.783Z,11.35
2018-12-08T12:14:00.605Z,11.20
2018-12-08T12:16:28.170Z,11.01
2018-12-08T12:18:55.568Z,10.80
2018-12-08T12:21:23.076Z,10.46
2018-12-08T12:23:50.795Z,10.18
2018-12-08T12:26:18.339Z,10.04
2018-12-08T12:28:45.848Z,10.02
2018-12-08T12:31:14.060Z,9.95
2018-12-08T12:33:41.610Z,9.95
2018-12-08T12:36:09.936Z,9.96
2018-12-08T12:38:38.175Z,9.93
2018-12-08T12:41:05.631Z,9.93
2018-12-08T12:43:33.346Z,10.00
2018-12-08T12:46:00.775Z,9.91
2018-12-08T12:48:28.239Z,9.92
2018-12-08T12:50:55.878Z,9.80
2018-12-08T12:53:23.293Z,9.74
2018-12-08T12:55:50.909Z,9.73
2018-12-08T12:58:18.305Z,9.78
2018-12-08T13:00:46.193Z,9.68
2018-12-08T13:03:14.312Z,9.59
2018-12-08T13:05:41.716Z,9.52
2018-12-08T13:08:09.451Z,9.39
2018-12-08T13:10:36.996Z,9.23
2018-12-08T13:13:04.703Z,9.15
2018-12-08T13:15:32.117Z,9.13
2018-12-08T13:17:59.520Z,9.17
2018-12-08T13:20:27.039Z,9.11
2018-12-08T13:22:54.706Z,9.14
2018-12-08T13:25:22.150Z,9.03
2018-12-08T13:27:49.619Z,8.99
2018-12-08T13:30:18.107Z,9.10
2018-12-08T13:32:45.599Z,9.06
2018-12-08T13:35:18.751Z,9.05
2018-12-08T13:37:46.512Z,9.06
2018-12-08T13:40:13.916Z,9.12
2018-12-08T13:42:41.419Z,9.10
2018-12-08T13:45:17.045Z,9.09
2018-12-08T13:47:44.494Z,9.09
2018-12-08T13:50:11.910Z,9.16
2018-12-08T13:52:39.461Z,9.19
2018-12-08T13:55:07.637Z,9.23
2018-12-08T13:57:35.291Z,9.35
2018-12-08T14:00:02.897Z,9.37
2018-12-08T14:02:31.438Z,9.43
2018-12-08T14:04:58.923Z,9.43
2018-12-08T14:07:26.484Z,9.42
2018-12-08T14:09:56.591Z,9.36
2018-12-08T14:12:24.129Z,9.29
2018-12-08T14:14:51.935Z,9.24
2018-12-08T14:17:19.338Z,9.14
2018-12-08T14:19:46.840Z,9.08
2018-12-08T14:22:16.178Z,8.97
2018-12-08T14:24:43.786Z,8.91
2018-12-08T14:27:11.219Z,8.86
2018-12-08T14:29:38.680Z,8.97
2018-12-08T14:32:06.662Z,8.97
2018-12-08T14:34:34.288Z,8.86
2018-12-08T14:37:01.925Z,8.80
2018-12-08T14:39:29.804Z,8.85
2018-12-08T14:41:58.231Z,8.92
2018-12-08T14:44:27.162Z,8.90
2018-12-08T14:46:54.628Z,8.89
2018-12-08T14:49:22.081Z,8.94
2018-12-08T14:51:49.943Z,8.94
2018-12-08T14:54:17.682Z,8.92
2018-12-08T14:56:45.154Z,8.89
2018-12-08T14:59:12.776Z,8.79
2018-12-08T15:01:40.292Z,8.71
2018-12-08T15:04:07.785Z,8.70
2018-12-08T15:06:37.088Z,8.57
2018-12-08T15:09:04.677Z,8.56
2018-12-08T15:11:32.140Z,8.59
2018-12-08T15:14:00.302Z,8.59
2018-12-08T15:16:32.105Z,8.54
2018-12-08T15:18:59.693Z,8.52
2018-12-08T15:21:27.167Z,8.52
2018-12-08T15:23:54.618Z,8.51
2018-12-08T15:26:22.243Z,8.49
2018-12-08T15:28:50.261Z,8.55
2018-12-08T15:31:17.703Z,8.64
2018-12-08T15:33:45.674Z,8.68
2018-12-08T15:36:13.099Z,8.73
2018-12-08T15:38:40.956Z,8.75
2018-12-08T15:41:09.270Z,8.85
2018-12-08T15:43:38.185Z,8.93
2018-12-08T15:46:10.630Z,8.93
2018-12-08T15:48:38.142Z,8.88
2018-12-08T15:51:05.557Z,8.89
2018-12-08T15:53:32.982Z,8.93
2018-12-08T15:56:00.588Z,8.94
2018-12-08T15:58:28.276Z,9.00
2018-12-08T16:00:55.752Z,9.10
2018-12-08T16:03:23.738Z,9.11
2018-12-08T16:05:51.504Z,9.17
2018-12-08T16:08:19.209Z,9.16
2018-12-08T16:10:46.668Z,9.18
2018-12-08T16:13:14.616Z,9.23
2018-12-08T16:15:42.063Z,9.22
2018-12-08T16:18:09.576Z,9.27
2018-12-08T16:20:36.982Z,9.23
2018-12-08T16:23:04.425Z,9.15
2018-12-08T16:25:32.497Z,9.08
2018-12-08T16:27:59.886Z,9.05
2018-12-08T16:30:27.323Z,9.04
2018-12-08T16:32:54.726Z,9.09
2018-12-08T16:35:22.642Z,9.11
2018-12-08T16:37:56.973Z,9.04
2018-12-08T16:40:17.630Z,9.04
2018-12-08T16:42:45.311Z,9.02
2018-12-08T16:45:12.719Z,9.00
2018-12-08T16:47:40.796Z,8.95
2018-12-08T16:50:09.546Z,8.92
2018-12-08T16:52:37.829Z,8.95
2018-12-08T16:55:06.225Z,8.92
2018-12-08T16:57:33.713Z,8.87
2018-12-08T17:00:02.046Z,8.85
2018-12-08T17:02:29.444Z,8.88
2018-12-08T17:04:57.046Z,8.90
2018-12-08T17:07:24.749Z,8.89
2018-12-08T17:09:52.452Z,8.85
2018-12-08T17:12:19.978Z,8.83
2018-12-08T17:14:47.887Z,8.83
2018-12-08T17:17:15.635Z,8.82
2018-12-08T17:19:43.366Z,8.73
2018-12-08T17:22:10.837Z,8.74
2018-12-08T17:24:38.476Z,8.80
2018-12-08T17:27:06.446Z,8.84
2018-12-08T17:29:33.921Z,8.89
2018-12-08T17:32:01.359Z,8.91
2018-12-08T17:34:29.031Z,8.93
2018-12-08T17:36:56.707Z,8.91
2018-12-08T17:39:24.435Z,8.84
2018-12-08T17:41:52.056Z,8.73
2018-12-08T17:44:20.369Z,8.56
2018-12-08T17:49:21.869Z,8.31
2018-12-08T17:51:51.327Z,8.34
2018-12-08T17:54:19.579Z,8.30
2018-12-08T17:56:47.749Z,8.28
2018-12-08T17:59:15.247Z,8.28
2018-12-08T18:01:42.675Z,8.20
2018-12-08T18:04:10.484Z,8.22
2018-12-08T18:06:38.446Z,8.22
2018-12-08T18:09:06.405Z,8.15
2018-12-08T18:11:34.108Z,8.12
2018-12-08T18:14:01.729Z,8.09
2018-12-08T18:16:30.274Z,8.12
2018-12-08T18:18:57.888Z,8.11
2018-12-08T18:21:25.576Z,8.08
2018-12-08T18:23:53.661Z,7.99
2018-12-08T18:26:23.083Z,7.96
2018-12-08T18:28:51.588Z,8.01
2018-12-08T18:31:19.089Z,8.12
2018-12-08T18:33:46.770Z,8.18
2018-12-08T18:36:16.008Z,8.36
2018-12-08T18:38:43.905Z,8.56
2018-12-08T18:41:11.351Z,8.77
2018-12-08T18:43:40.236Z,8.82
2018-12-08T18:46:07.814Z,8.58
2018-12-08T18:48:35.253Z,8.35
2018-12-08T18:51:02.857Z,8.22
2018-12-08T18:53:30.445Z,8.17
2018-12-08T18:55:58.121Z,8.14
2018-12-08T18:58:25.676Z,8.21
2018-12-08T19:00:53.171Z,8.18
2018-12-08T19:03:21.573Z,8.15
2018-12-08T19:05:49.601Z,8.12
2018-12-08T19:08:16.994Z,8.12
2018-12-08T19:10:45.147Z,8.28
2018-12-08T19:13:14.736Z,8.61
2018-12-08T19:15:42.288Z,8.96
2018-12-08T19:18:09.735Z,9.10
2018-12-08T19:20:37.817Z,9.12
2018-12-08T19:23:05.411Z,8.86
2018-12-08T19:25:32.891Z,8.69
2018-12-08T19:28:00.493Z,8.67
2018-12-08T19:30:27.933Z,8.71
2018-12-08T19:32:55.459Z,8.57
2018-12-08T19:35:22.967Z,8.42
2018-12-08T19:37:50.510Z,8.31
2018-12-08T19:40:18.004Z,8.30
2018-12-08T19:42:45.421Z,8.31
2018-12-08T19:45:13.128Z,8.26
2018-12-08T19:47:41.047Z,8.29
2018-12-08T19:50:08.671Z,8.29
2018-12-08T19:52:36.934Z,8.29
2018-12-08T19:55:04.338Z,8.33
2018-12-08T19:57:32.021Z,8.39
2018-12-08T19:59:59.418Z,8.45
2018-12-08T20:02:27.523Z,8.44
2018-12-08T20:04:54.931Z,8.51
2018-12-08T20:07:22.519Z,8.52
2018-12-08T20:09:50.070Z,8.50
2018-12-08T20:12:18.559Z,8.52
2018-12-08T20:14:45.061Z,8.51
2018-12-08T20:17:12.473Z,8.51
2018-12-08T20:19:40.226Z,8.47
2018-12-08T20:22:08.378Z,8.50
2018-12-08T20:24:35.843Z,8.53
2018-12-08T20:27:03.438Z,8.54
2018-12-08T20:29:31.154Z,8.58
2018-12-08T20:31:58.980Z,8.62
2018-12-08T20:34:27.508Z,8.62
2018-12-08T20:36:55.159Z,8.64
2018-12-08T20:39:22.691Z,8.60
2018-12-08T20:41:50.167Z,8.58
2018-12-08T20:44:17.948Z,8.61
2018-12-08T20:46:45.337Z,8.60
2018-12-08T20:49:12.761Z,8.55
2018-12-08T20:51:40.396Z,8.56
2018-12-08T20:54:07.770Z,8.63
2018-12-08T20:56:35.834Z,8.66
2018-12-08T20:59:03.649Z,8.64
2018-12-08T21:01:31.167Z,8.70
2018-12-08T21:03:58.622Z,8.70
2018-12-08T21:06:26.190Z,8.69
2018-12-08T21:08:54.639Z,8.70
2018-12-08T21:11:22.133Z,8.71
2018-12-08T21:13:49.681Z,8.70
2018-12-08T21:16:17.623Z,8.73
2018-12-08T21:18:45.139Z,8.83
2018-12-08T21:21:12.649Z,8.86
2018-12-08T21:23:40.160Z,8.86
2018-12-08T21:26:07.575Z,8.92
2018-12-08T21:28:35.646Z,8.99
2018-12-08T21:31:03.833Z,9.04
2018-12-08T21:33:32.241Z,9.07
2018-12-08T21:35:59.823Z,9.09
2018-12-08T21:38:27.958Z,9.13
2018-12-08T21:40:55.616Z,9.11
2018-12-08T21:43:23.287Z,9.09
2018-12-08T21:45:50.712Z,9.08
2018-12-08T21:48:18.582Z,9.09
2018-12-08T21:50:45.999Z,9.08
2018-12-08T21:53:13.397Z,9.08
2018-12-08T21:55:40.823Z,9.07
2018-12-08T21:58:08.216Z,8.98
2018-12-08T22:00:35.678Z,8.94
2018-12-08T22:03:03.142Z,8.95
2018-12-08T22:05:30.601Z,8.95
2018-12-08T22:07:58.029Z,8.89
2018-12-08T22:10:25.575Z,8.90
2018-12-08T22:12:53.033Z,8.89
2018-12-08T22:15:20.493Z,8.88
2018-12-08T22:17:47.893Z,8.91
2018-12-08T22:20:15.593Z,8.89
2018-12-08T22:22:43.081Z,8.81
2018-12-08T22:25:10.525Z,8.99
2018-12-08T22:27:37.928Z,9.17
2018-12-08T22:30:05.429Z,9.29
2018-12-08T22:32:32.903Z,9.37
2018-12-08T22:35:00.370Z,9.39
2018-12-08T22:37:29.102Z,9.40
2018-12-08T22:39:55.351Z,9.44
2018-12-08T22:42:23.518Z,9.47
2018-12-08T22:44:51.002Z,9.48
2018-12-08T22:47:18.539Z,9.48
2018-12-08T22:49:46.727Z,9.52
2018-12-08T22:52:14.241Z,9.62
2018-12-08T22:54:42.308Z,9.67
2018-12-08T22:57:09.894Z,9.64
2018-12-08T22:59:37.286Z,9.56
2018-12-08T23:02:04.986Z,9.54
2018-12-08T23:04:32.486Z,9.60
2018-12-08T23:07:01.027Z,9.79
2018-12-08T23:09:29.485Z,9.91
2018-12-08T23:11:56.908Z,9.99
2018-12-08T23:14:24.328Z,10.02
2018-12-08T23:16:52.084Z,10.05
2018-12-08T23:19:19.510Z,10.10
2018-12-08T23:21:47.732Z,10.14
2018-12-08T23:24:15.172Z,10.23
2018-12-08T23:26:42.656Z,10.30
2018-12-08T23:29:10.486Z,10.32
2018-12-08T23:31:38.033Z,10.22
2018-12-08T23:34:05.463Z,10.13
2018-12-08T23:36:32.950Z,10.14
2018-12-08T23:39:00.391Z,10.13
2018-12-08T23:41:27.890Z,10.11
2018-12-08T23:43:55.287Z,10.10
2018-12-08T23:46:22.733Z,10.08
2018-12-08T23:48:50.126Z,10.03
2018-12-08T23:51:18.589Z,9.89
2018-12-08T23:53:45.110Z,9.86
2018-12-08T23:56:12.536Z,9.85
2018-12-08T23:58:39.951Z,10.03
